createdAt,value
2017-06-04T00:00:12.387Z,0.00
2017-06-04T00:01:06.145Z,0.00
2017-06-04T00:02:00.162Z,0.00
2017-06-04T00:02:49.724Z,0.00
2017-06-04T00:03:43.265Z,0.00
2017-06-04T00:04:38.247Z,0.00
2017-06-04T00:05:32.290Z,0.00
2017-06-04T00:06:26.385Z,0.00
2017-06-04T00:07:14.391Z,0.00
2017-06-04T00:08:08.982Z,0.00
2017-06-04T00:09:02.734Z,0.00
2017-06-04T00:09:56.516Z,0.00
2017-06-04T00:10:50.907Z,0.00
2017-06-04T00:11:44.698Z,0.00
2017-06-04T00:12:39.167Z,0.00
2017-06-04T00:13:38.779Z,0.00
2017-06-04T00:14:33.709Z,0.00
2017-06-04T00:15:27.804Z,0.00
2017-06-04T00:16:23.369Z,0.00
2017-06-04T00:17:12.138Z,0.00
2017-06-04T00:18:07.493Z,0.00
2017-06-04T00:19:06.945Z,0.00
2017-06-04T00:20:01.036Z,0.00
2017-06-04T00:20:50.124Z,0.00
2017-06-04T00:21:44.589Z,0.00
2017-06-04T00:22:38.681Z,0.00
2017-06-04T00:23:32.377Z,0.00
2017-06-04T00:24:26.581Z,0.00
2017-06-04T00:25:20.607Z,0.00
2017-06-04T00:26:14.290Z,0.00
2017-06-04T00:27:08.633Z,0.00
2017-06-04T00:28:02.962Z,0.00
2017-06-04T00:28:58.033Z,0.00
2017-06-04T00:29:46.978Z,0.00
2017-06-04T00:30:36.085Z,0.00
2017-06-04T00:31:25.112Z,0.00
2017-06-04T00:32:31.113Z,0.00
2017-06-04T00:33:20.152Z,0.00
2017-06-04T00:34:14.050Z,0.00
2017-06-04T00:35:08.153Z,0.00
2017-06-04T00:36:09.318Z,0.00
2017-06-04T00:37:04.289Z,0.00
2017-06-04T00:37:58.381Z,0.00
2017-06-04T00:38:46.435Z,0.00
2017-06-04T00:39:34.402Z,0.00
2017-06-04T00:40:28.507Z,0.00
2017-06-04T00:41:28.694Z,0.00
2017-06-04T00:42:28.622Z,0.00
2017-06-04T00:43:28.596Z,0.00
2017-06-04T00:44:23.597Z,0.00
2017-06-04T00:45:23.666Z,0.00
2017-06-04T00:46:18.724Z,0.00
2017-06-04T00:47:18.341Z,0.00
2017-06-04T00:48:07.873Z,0.00
2017-06-04T00:48:56.732Z,0.00
2017-06-04T00:49:50.876Z,0.00
2017-06-04T00:50:50.920Z,0.00
2017-06-04T00:51:44.417Z,0.00
2017-06-04T00:52:34.017Z,0.00
2017-06-04T00:53:27.480Z,0.00
2017-06-04T00:54:27.496Z,0.00
2017-06-04T00:55:21.967Z,0.00
2017-06-04T00:56:10.575Z,0.00
2017-06-04T00:56:59.961Z,0.00
2017-06-04T00:57:49.332Z,0.00
2017-06-04T00:58:36.939Z,0.00
2017-06-04T00:59:26.311Z,0.00
2017-06-04T01:00:20.431Z,0.00
2017-06-04T01:01:20.303Z,0.00
2017-06-04T01:02:14.532Z,0.00
2017-06-04T01:03:03.539Z,0.00
2017-06-04T01:03:51.515Z,0.00
2017-06-04T01:04:39.517Z,0.00
2017-06-04T01:05:27.511Z,0.00
2017-06-04T01:06:15.710Z,0.00
2017-06-04T01:07:04.744Z,0.00
2017-06-04T01:07:52.754Z,0.00
2017-06-04T01:08:40.804Z,0.00
2017-06-04T01:09:40.867Z,0.00
2017-06-04T01:10:28.886Z,0.00
2017-06-04T01:11:29.040Z,0.00
2017-06-04T01:12:22.929Z,0.00
2017-06-04T01:13:23.886Z,0.00
2017-06-04T01:14:18.056Z,0.00
2017-06-04T01:15:07.033Z,0.00
2017-06-04T01:16:01.966Z,0.00
2017-06-04T01:16:57.204Z,0.00
2017-06-04T01:17:51.255Z,0.00
2017-06-04T01:18:40.182Z,0.00
2017-06-04T01:19:27.948Z,0.00
2017-06-04T01:20:22.375Z,0.00
2017-06-04T01:21:28.086Z,0.00
2017-06-04T01:22:28.298Z,0.00
2017-06-04T01:23:17.522Z,0.00
2017-06-04T01:24:05.498Z,0.00
2017-06-04T01:24:59.299Z,0.00
2017-06-04T01:25:47.021Z,0.00
2017-06-04T01:26:35.342Z,0.00
2017-06-04T01:27:24.652Z,0.00
2017-06-04T01:28:12.770Z,0.00
2017-06-04T01:29:07.204Z,0.00
2017-06-04T01:30:01.302Z,0.00
2017-06-04T01:30:49.295Z,0.00
2017-06-04T01:31:44.305Z,0.00
2017-06-04T01:32:38.974Z,0.00
2017-06-04T01:33:44.386Z,0.00
2017-06-04T01:34:38.433Z,0.00
2017-06-04T01:35:27.655Z,0.00
2017-06-04T01:36:15.799Z,0.00
2017-06-04T01:37:04.619Z,0.00
2017-06-04T01:37:59.219Z,0.00
2017-06-04T01:38:53.622Z,0.00
2017-06-04T01:39:42.719Z,0.00
2017-06-04T01:40:37.347Z,0.00
2017-06-04T01:41:25.808Z,0.00
2017-06-04T01:42:20.786Z,0.00
2017-06-04T01:43:16.375Z,0.00
2017-06-04T01:44:10.948Z,0.00
2017-06-04T01:45:05.038Z,0.00
2017-06-04T01:46:11.065Z,0.00
2017-06-04T01:47:00.014Z,0.00
2017-06-04T01:47:48.644Z,0.00
2017-06-04T01:48:49.589Z,0.00
2017-06-04T01:49:38.686Z,0.00
2017-06-04T01:50:27.763Z,0.00
2017-06-04T01:51:21.752Z,0.00
2017-06-04T01:52:16.748Z,0.00
2017-06-04T01:53:10.803Z,0.00
2017-06-04T01:54:05.862Z,0.00
2017-06-04T01:55:00.938Z,0.00
2017-06-04T01:56:00.973Z,0.00
2017-06-04T01:57:01.016Z,0.00
2017-06-04T01:57:50.084Z,0.00
2017-06-04T01:58:39.059Z,0.00
2017-06-04T01:59:40.115Z,0.00
2017-06-04T02:00:34.164Z,0.00
2017-06-04T02:01:23.158Z,0.00
2017-06-04T02:02:24.412Z,0.00
2017-06-04T02:03:24.254Z,0.00
2017-06-04T02:04:30.340Z,0.00
2017-06-04T02:05:19.363Z,0.00
2017-06-04T02:06:13.413Z,0.00
2017-06-04T02:07:07.492Z,0.00
2017-06-04T02:07:56.517Z,0.00
2017-06-04T02:08:56.315Z,0.00
2017-06-04T02:09:44.284Z,0.00
2017-06-04T02:10:33.553Z,0.00
2017-06-04T02:11:27.574Z,0.00
2017-06-04T02:12:22.633Z,0.00
2017-06-04T02:13:16.772Z,0.00
2017-06-04T02:14:10.672Z,0.00
2017-06-04T02:15:04.778Z,0.00
2017-06-04T02:16:04.241Z,0.00
2017-06-04T02:16:53.575Z,0.00
2017-06-04T02:17:47.691Z,0.00
2017-06-04T02:18:41.439Z,0.00
2017-06-04T02:19:42.408Z,0.00
2017-06-04T02:20:31.477Z,0.00
2017-06-04T02:21:20.635Z,0.00
2017-06-04T02:22:13.567Z,0.00
2017-06-04T02:23:09.048Z,0.00
2017-06-04T02:23:57.662Z,0.00
2017-06-04T02:24:52.667Z,0.00
2017-06-04T02:25:52.687Z,0.00
2017-06-04T02:26:47.026Z,0.00
2017-06-04T02:27:47.393Z,0.00
2017-06-04T02:28:35.800Z,0.00
2017-06-04T02:29:30.890Z,0.00
2017-06-04T02:30:19.871Z,0.00
2017-06-04T02:31:14.479Z,0.00
2017-06-04T02:32:07.977Z,0.00
2017-06-04T02:33:03.351Z,0.00
2017-06-04T02:33:57.081Z,0.00
2017-06-04T02:34:57.190Z,0.00
2017-06-04T02:35:52.334Z,0.00
2017-06-04T02:36:47.163Z,0.00
2017-06-04T02:37:47.218Z,0.00
2017-06-04T02:38:42.287Z,0.00
2017-06-04T02:39:36.328Z,0.00
2017-06-04T02:40:24.431Z,0.00
2017-06-04T02:41:18.376Z,0.00
2017-06-04T02:42:07.996Z,0.00
2017-06-04T02:42:56.009Z,0.00
2017-06-04T02:43:44.708Z,0.00
2017-06-04T02:44:39.727Z,0.00
2017-06-04T02:45:28.282Z,0.00
2017-06-04T02:46:21.605Z,0.00
2017-06-04T02:47:16.658Z,0.00
2017-06-04T02:48:05.733Z,0.00
2017-06-04T02:48:59.782Z,0.00
2017-06-04T02:49:59.807Z,0.00
2017-06-04T02:50:48.881Z,0.00
2017-06-04T02:51:36.958Z,0.00
2017-06-04T02:52:30.888Z,0.00
2017-06-04T02:53:19.985Z,0.00
2017-06-04T02:54:20.199Z,0.00
2017-06-04T02:55:14.035Z,0.00
2017-06-04T02:56:14.117Z,0.00
2017-06-04T02:57:09.198Z,0.00
2017-06-04T02:58:03.099Z,0.00
2017-06-04T02:58:57.195Z,0.00
2017-06-04T02:59:52.610Z,0.00
2017-06-04T03:00:46.563Z,0.00
2017-06-04T03:01:41.299Z,0.00
2017-06-04T03:02:41.344Z,0.00
2017-06-04T03:03:35.471Z,0.00
2017-06-04T03:04:35.413Z,0.00
2017-06-04T03:05:30.615Z,0.00
2017-06-04T03:06:30.662Z,0.00
2017-06-04T03:07:24.544Z,0.00
2017-06-04T03:08:24.862Z,0.00
2017-06-04T03:09:19.844Z,0.00
2017-06-04T03:10:13.596Z,0.00
2017-06-04T03:11:08.697Z,0.00
2017-06-04T03:12:02.698Z,0.00
2017-06-04T03:12:58.078Z,0.00
2017-06-04T03:13:57.746Z,0.00
2017-06-04T03:14:46.804Z,0.00
2017-06-04T03:15:35.891Z,0.00
2017-06-04T03:16:30.887Z,0.00
2017-06-04T03:17:24.968Z,0.00
2017-06-04T03:18:19.498Z,0.00
2017-06-04T03:19:08.009Z,0.00
2017-06-04T03:20:02.085Z,0.00
2017-06-04T03:20:50.119Z,0.00
2017-06-04T03:21:39.717Z,0.00
2017-06-04T03:22:27.168Z,0.00
2017-06-04T03:23:16.245Z,0.00
2017-06-04T03:24:05.023Z,0.00
2017-06-04T03:24:52.395Z,0.00
2017-06-04T03:25:40.396Z,0.00
2017-06-04T03:26:29.397Z,0.00
2017-06-04T03:27:17.525Z,0.00
2017-06-04T03:28:05.522Z,0.00
2017-06-04T03:28:53.562Z,0.00
2017-06-04T03:29:42.019Z,0.00
2017-06-04T03:30:29.677Z,0.01
2017-06-04T03:31:17.695Z,0.01
2017-06-04T03:32:05.736Z,0.01
2017-06-04T03:32:54.795Z,0.01
2017-06-04T03:33:43.144Z,0.01
2017-06-04T03:34:32.281Z,0.01
2017-06-04T03:35:19.966Z,0.01
2017-06-04T03:36:07.994Z,0.01
2017-06-04T03:36:56.974Z,0.01
2017-06-04T03:37:45.106Z,0.01
2017-06-04T03:38:34.584Z,0.01
2017-06-04T03:39:22.153Z,0.01
2017-06-04T03:40:10.229Z,0.01
2017-06-04T03:40:59.293Z,0.01
2017-06-04T03:41:47.278Z,0.01
2017-06-04T03:42:35.994Z,0.01
2017-06-04T03:43:24.365Z,0.01
2017-06-04T03:44:12.793Z,0.01
2017-06-04T03:45:01.762Z,0.01
2017-06-04T03:45:50.831Z,0.01
2017-06-04T03:46:46.058Z,0.01
2017-06-04T03:47:40.169Z,0.01
2017-06-04T03:48:34.861Z,0.01
2017-06-04T03:49:29.040Z,0.01
2017-06-04T03:50:22.999Z,0.01
2017-06-04T03:51:17.922Z,0.01
2017-06-04T03:52:11.805Z,0.01
2017-06-04T03:53:00.808Z,0.01
2017-06-04T03:53:54.959Z,0.02
2017-06-04T03:54:43.880Z,0.02
2017-06-04T03:55:32.965Z,0.02
2017-06-04T03:56:26.993Z,0.02
2017-06-04T03:57:21.517Z,0.02
2017-06-04T03:58:10.074Z,0.02
2017-06-04T03:58:58.456Z,0.02
2017-06-04T03:59:52.552Z,0.02
2017-06-04T04:00:52.187Z,0.02
2017-06-04T04:01:47.224Z,0.02
2017-06-04T04:02:42.375Z,0.02
2017-06-04T04:03:42.298Z,0.02
2017-06-04T04:04:37.754Z,0.02
2017-06-04T04:05:32.406Z,0.02
2017-06-04T04:06:26.790Z,0.02
2017-06-04T04:07:27.462Z,0.02
2017-06-04T04:08:17.163Z,0.02
2017-06-04T04:09:10.581Z,0.02
2017-06-04T04:10:10.617Z,0.02
2017-06-04T04:11:10.594Z,0.02
2017-06-04T04:11:59.672Z,0.02
2017-06-04T04:12:53.706Z,0.02
2017-06-04T04:13:54.380Z,0.03
2017-06-04T04:14:53.796Z,0.03
2017-06-04T04:15:53.808Z,0.03
2017-06-04T04:16:48.885Z,0.03
2017-06-04T04:17:43.867Z,0.03
2017-06-04T04:18:43.971Z,0.03
2017-06-04T04:19:37.953Z,0.03
2017-06-04T04:20:33.012Z,0.04
2017-06-04T04:21:21.102Z,0.04
2017-06-04T04:22:09.062Z,0.04
2017-06-04T04:22:57.541Z,0.04
2017-06-04T04:23:51.540Z,0.04
2017-06-04T04:24:39.265Z,0.04
2017-06-04T04:25:28.309Z,0.04
2017-06-04T04:26:16.309Z,0.04
2017-06-04T04:27:05.377Z,0.04
2017-06-04T04:28:00.415Z,0.04
2017-06-04T04:28:54.441Z,0.04
2017-06-04T04:29:55.583Z,0.04
2017-06-04T04:30:50.558Z,0.05
2017-06-04T04:31:50.548Z,0.05
2017-06-04T04:32:51.113Z,0.05
2017-06-04T04:33:50.626Z,0.05
2017-06-04T04:34:50.794Z,0.05
2017-06-04T04:35:39.859Z,0.05
2017-06-04T04:36:35.290Z,0.05
2017-06-04T04:37:23.791Z,0.05
2017-06-04T04:38:13.060Z,0.05
2017-06-04T04:39:07.063Z,0.05
2017-06-04T04:40:07.598Z,0.05
2017-06-04T04:41:02.360Z,0.05
2017-06-04T04:42:02.978Z,0.05
2017-06-04T04:43:03.361Z,0.05
2017-06-04T04:43:58.116Z,0.06
2017-06-04T04:44:53.263Z,0.06
2017-06-04T04:45:47.210Z,0.06
2017-06-04T04:46:35.697Z,0.06
2017-06-04T04:47:29.214Z,0.06
2017-06-04T04:48:23.738Z,0.06
2017-06-04T04:49:17.306Z,0.06
2017-06-04T04:50:17.485Z,0.06
2017-06-04T04:51:11.415Z,0.06
2017-06-04T04:52:17.466Z,0.06
2017-06-04T04:53:11.470Z,0.06
2017-06-04T04:54:12.471Z,0.06
2017-06-04T04:55:12.650Z,0.06
2017-06-04T04:56:07.591Z,0.07
2017-06-04T04:57:08.029Z,0.07
2017-06-04T04:58:07.669Z,0.07
2017-06-04T04:59:08.170Z,0.07
2017-06-04T05:00:01.742Z,0.07
2017-06-04T05:01:01.885Z,0.07
2017-06-04T05:01:56.788Z,0.07
2017-06-04T05:02:51.870Z,0.07
2017-06-04T05:03:40.542Z,0.07
2017-06-04T05:04:39.977Z,0.07
2017-06-04T05:05:28.000Z,0.07
2017-06-04T05:06:28.008Z,0.07
2017-06-04T05:07:23.092Z,0.07
2017-06-04T05:08:17.091Z,0.08
2017-06-04T05:09:11.155Z,0.08
2017-06-04T05:10:05.191Z,0.08
2017-06-04T05:11:06.213Z,0.08
2017-06-04T05:12:07.294Z,0.09
2017-06-04T05:13:07.316Z,0.09
2017-06-04T05:14:02.362Z,0.09
2017-06-04T05:15:02.440Z,0.09
2017-06-04T05:15:57.566Z,0.09
2017-06-04T05:16:52.935Z,0.09
2017-06-04T05:17:46.826Z,0.10
2017-06-04T05:18:46.586Z,0.10
2017-06-04T05:19:40.571Z,0.10
2017-06-04T05:20:29.705Z,0.11
2017-06-04T05:21:24.146Z,0.11
2017-06-04T05:22:11.717Z,0.11
2017-06-04T05:23:06.115Z,0.11
2017-06-04T05:24:00.406Z,0.12
2017-06-04T05:24:54.834Z,0.12
2017-06-04T05:25:43.157Z,0.12
2017-06-04T05:26:36.941Z,0.12
2017-06-04T05:27:24.978Z,0.12
2017-06-04T05:28:14.629Z,0.13
2017-06-04T05:29:14.118Z,0.13
2017-06-04T05:30:09.585Z,0.13
2017-06-04T05:30:58.652Z,0.13
2017-06-04T05:31:47.212Z,0.13
2017-06-04T05:32:47.604Z,0.13
2017-06-04T05:33:42.753Z,0.13
2017-06-04T05:34:36.310Z,0.14
2017-06-04T05:35:25.382Z,0.14
2017-06-04T05:36:20.971Z,0.14
2017-06-04T05:37:15.975Z,0.14
2017-06-04T05:38:10.003Z,0.14
2017-06-04T05:38:57.549Z,0.15
2017-06-04T05:39:46.124Z,0.15
2017-06-04T05:40:47.088Z,0.15
2017-06-04T05:41:47.170Z,0.15
2017-06-04T05:42:42.310Z,0.16
2017-06-04T05:43:36.271Z,0.16
2017-06-04T05:44:36.362Z,0.16
2017-06-04T05:45:24.316Z,0.16
2017-06-04T05:46:12.357Z,0.17
2017-06-04T05:47:06.444Z,0.17
2017-06-04T05:48:07.503Z,0.17
2017-06-04T05:49:08.515Z,0.17
2017-06-04T05:50:02.495Z,0.17
2017-06-04T05:50:51.545Z,0.17
2017-06-04T05:51:46.554Z,0.17
2017-06-04T05:52:41.859Z,0.17
2017-06-04T05:53:35.744Z,0.17
2017-06-04T05:54:29.718Z,0.17
2017-06-04T05:55:29.802Z,0.17
2017-06-04T05:56:24.842Z,0.17
2017-06-04T05:57:24.905Z,0.17
2017-06-04T05:58:25.878Z,0.17
2017-06-04T05:59:26.959Z,0.16
2017-06-04T06:00:21.230Z,0.16
2017-06-04T06:01:21.217Z,0.16
2017-06-04T06:02:16.160Z,0.16
2017-06-04T06:03:11.126Z,0.16
2017-06-04T06:03:59.183Z,0.15
2017-06-04T06:04:54.192Z,0.15
2017-06-04T06:05:42.343Z,0.15
2017-06-04T06:06:36.324Z,0.16
2017-06-04T06:07:30.352Z,0.16
2017-06-04T06:08:19.432Z,0.16
2017-06-04T06:09:07.537Z,0.16
2017-06-04T06:10:01.505Z,0.16
2017-06-04T06:10:49.316Z,0.16
2017-06-04T06:11:43.434Z,0.17
2017-06-04T06:12:38.311Z,0.17
2017-06-04T06:13:27.665Z,0.17
2017-06-04T06:14:16.767Z,0.17
2017-06-04T06:15:04.801Z,0.17
2017-06-04T06:15:53.864Z,0.17
2017-06-04T06:16:53.876Z,0.16
2017-06-04T06:17:47.935Z,0.16
2017-06-04T06:18:48.959Z,0.17
2017-06-04T06:19:49.981Z,0.18
2017-06-04T06:20:45.008Z,0.18
2017-06-04T06:21:40.040Z,0.19
2017-06-04T06:22:34.150Z,0.19
2017-06-04T06:23:34.210Z,0.20
2017-06-04T06:24:29.221Z,0.20
2017-06-04T06:25:23.309Z,0.20
2017-06-04T06:26:17.788Z,0.20
2017-06-04T06:27:07.438Z,0.20
2017-06-04T06:27:55.373Z,0.20
2017-06-04T06:28:44.511Z,0.20
2017-06-04T06:29:32.466Z,0.20
2017-06-04T06:30:33.572Z,0.21
2017-06-04T06:31:21.579Z,0.22
2017-06-04T06:32:15.613Z,0.23
2017-06-04T06:33:10.380Z,0.23
2017-06-04T06:33:59.507Z,0.24
2017-06-04T06:34:48.869Z,0.23
2017-06-04T06:35:36.834Z,0.23
2017-06-04T06:36:30.934Z,0.23
2017-06-04T06:37:30.862Z,0.25
2017-06-04T06:38:18.984Z,0.26
2017-06-04T06:39:12.977Z,0.26
2017-06-04T06:40:07.067Z,0.26
2017-06-04T06:40:56.229Z,0.26
2017-06-04T06:41:51.140Z,0.26
2017-06-04T06:42:51.206Z,0.27
2017-06-04T06:43:51.317Z,0.29
2017-06-04T06:44:46.304Z,0.28
2017-06-04T06:45:40.317Z,0.28
2017-06-04T06:46:34.378Z,0.28
2017-06-04T06:47:35.413Z,0.30
2017-06-04T06:48:29.470Z,0.29
2017-06-04T06:49:24.439Z,0.27
2017-06-04T06:50:18.544Z,0.27
2017-06-04T06:51:12.345Z,0.25
2017-06-04T06:52:06.725Z,0.26
2017-06-04T06:53:06.799Z,0.28
2017-06-04T06:54:00.817Z,0.28
2017-06-04T06:54:54.655Z,0.27
2017-06-04T06:55:49.820Z,0.29
2017-06-04T06:56:38.460Z,0.31
2017-06-04T06:57:32.638Z,0.31
2017-06-04T06:58:27.991Z,0.33
2017-06-04T06:59:28.004Z,0.32
2017-06-04T07:00:23.053Z,0.28
2017-06-04T07:01:18.103Z,0.29
2017-06-04T07:02:18.269Z,0.33
2017-06-04T07:03:12.301Z,0.33
2017-06-04T07:04:01.313Z,0.32
2017-06-04T07:05:01.365Z,0.34
2017-06-04T07:05:49.317Z,0.35
2017-06-04T07:06:48.931Z,0.34
2017-06-04T07:07:38.489Z,0.32
2017-06-04T07:08:32.213Z,0.29
2017-06-04T07:09:27.590Z,0.32
2017-06-04T07:10:27.478Z,0.39
2017-06-04T07:11:21.410Z,0.41
2017-06-04T07:12:21.543Z,0.43
2017-06-04T07:13:10.751Z,0.44
2017-06-04T07:14:04.887Z,0.44
2017-06-04T07:14:58.881Z,0.46
2017-06-04T07:15:52.920Z,0.49
2017-06-04T07:16:47.888Z,0.51
2017-06-04T07:17:47.908Z,0.51
2017-06-04T07:18:43.025Z,0.48
2017-06-04T07:19:31.105Z,0.47
2017-06-04T07:20:32.103Z,0.43
2017-06-04T07:21:32.110Z,0.42
2017-06-04T07:22:27.196Z,0.45
2017-06-04T07:23:21.331Z,0.44
2017-06-04T07:24:16.036Z,0.48
2017-06-04T07:25:05.407Z,0.46
2017-06-04T07:25:59.042Z,0.45
2017-06-04T07:26:54.510Z,0.47
2017-06-04T07:27:48.544Z,0.48
2017-06-04T07:28:48.628Z,0.51
2017-06-04T07:29:42.665Z,0.53
2017-06-04T07:30:37.826Z,0.51
2017-06-04T07:31:26.825Z,0.51
2017-06-04T07:32:26.789Z,0.57
2017-06-04T07:33:15.841Z,0.56
2017-06-04T07:34:10.961Z,0.55
2017-06-04T07:35:11.027Z,0.53
2017-06-04T07:35:59.069Z,0.53
2017-06-04T07:36:47.078Z,0.57
2017-06-04T07:37:47.109Z,0.62
2017-06-04T07:38:41.241Z,0.69
2017-06-04T07:39:41.275Z,0.65
2017-06-04T07:40:30.292Z,0.56
2017-06-04T07:41:24.384Z,0.50
2017-06-04T07:42:24.393Z,0.59
2017-06-04T07:43:19.488Z,0.53
2017-06-04T07:44:13.487Z,0.46
2017-06-04T07:45:13.560Z,0.57
2017-06-04T07:46:07.666Z,0.54
2017-06-04T07:47:01.754Z,0.50
2017-06-04T07:47:55.732Z,0.52
2017-06-04T07:48:55.797Z,0.52
2017-06-04T07:49:49.880Z,0.54
2017-06-04T07:50:49.905Z,0.49
2017-06-04T07:51:37.959Z,0.49
2017-06-04T07:52:37.935Z,0.55
2017-06-04T07:53:32.969Z,0.55
2017-06-04T07:54:22.156Z,0.55
2017-06-04T07:55:22.162Z,0.57
2017-06-04T07:56:16.217Z,0.62
2017-06-04T07:57:10.271Z,0.64
2017-06-04T07:58:05.365Z,0.61
2017-06-04T07:58:59.398Z,0.50
2017-06-04T07:59:53.472Z,0.48
2017-06-04T08:00:47.535Z,0.42
2017-06-04T08:01:36.573Z,0.44
2017-06-04T08:02:25.658Z,0.46
2017-06-04T08:03:25.670Z,0.50
2017-06-04T08:04:19.718Z,0.56
2017-06-04T08:05:19.772Z,0.57
2017-06-04T08:06:07.801Z,0.61
2017-06-04T08:06:56.913Z,0.67
2017-06-04T08:07:51.959Z,0.72
2017-06-04T08:08:47.017Z,0.71
2017-06-04T08:09:36.089Z,0.76
2017-06-04T08:10:30.114Z,0.76
2017-06-04T08:11:24.195Z,0.69
2017-06-04T08:12:18.222Z,0.70
2017-06-04T08:13:07.332Z,0.64
2017-06-04T08:13:56.392Z,0.61
2017-06-04T08:14:50.381Z,0.51
2017-06-04T08:15:45.468Z,0.72
2017-06-04T08:16:34.534Z,0.69
2017-06-04T08:17:23.572Z,0.76
2017-06-04T08:18:12.643Z,0.72
2017-06-04T08:19:01.872Z,0.67
2017-06-04T08:19:50.758Z,0.70
2017-06-04T08:20:39.810Z,0.69
2017-06-04T08:21:33.867Z,0.63
2017-06-04T08:22:27.937Z,0.65
2017-06-04T08:23:22.025Z,0.58
2017-06-04T08:24:11.055Z,0.69
2017-06-04T08:24:59.113Z,0.66
2017-06-04T08:25:54.199Z,0.82
2017-06-04T08:26:43.204Z,0.81
2017-06-04T08:27:32.313Z,0.38
2017-06-04T08:28:27.298Z,0.27
2017-06-04T08:29:16.420Z,0.40
2017-06-04T08:30:05.444Z,0.93
2017-06-04T08:31:05.582Z,0.90
2017-06-04T08:31:59.573Z,0.55
2017-06-04T08:32:54.606Z,0.28
2017-06-04T08:33:49.717Z,0.55
2017-06-04T08:34:38.915Z,0.89
2017-06-04T08:35:32.817Z,0.88
2017-06-04T08:36:26.824Z,0.92
2017-06-04T08:37:15.926Z,0.96
2017-06-04T08:38:09.991Z,0.81
2017-06-04T08:38:59.061Z,0.34
2017-06-04T08:39:53.088Z,0.31
2017-06-04T08:40:42.216Z,0.38
2017-06-04T08:41:30.217Z,0.90
2017-06-04T08:42:25.310Z,0.74
2017-06-04T08:43:19.331Z,0.70
2017-06-04T08:44:13.382Z,0.68
2017-06-04T08:45:07.472Z,0.92
2017-06-04T08:46:01.519Z,0.94
2017-06-04T08:46:55.564Z,0.95
2017-06-04T08:47:50.608Z,0.96
2017-06-04T08:48:44.662Z,0.91
2017-06-04T08:49:38.800Z,0.34
2017-06-04T08:50:33.934Z,0.34
2017-06-04T08:51:27.912Z,0.37
2017-06-04T08:52:22.911Z,0.75
2017-06-04T08:53:17.015Z,0.38
2017-06-04T08:54:05.074Z,0.29
2017-06-04T08:55:05.078Z,0.29
2017-06-04T08:55:53.452Z,0.30
2017-06-04T08:56:47.184Z,0.90
2017-06-04T08:57:42.280Z,0.38
2017-06-04T08:58:36.370Z,0.29
2017-06-04T08:59:31.388Z,0.81
2017-06-04T09:00:25.470Z,0.89
2017-06-04T09:01:19.523Z,0.93
2017-06-04T09:02:13.545Z,0.95
2017-06-04T09:03:02.595Z,0.98
2017-06-04T09:03:51.734Z,1.00
2017-06-04T09:04:40.738Z,1.02
2017-06-04T09:05:35.828Z,1.05
2017-06-04T09:06:30.018Z,1.01
2017-06-04T09:07:23.951Z,0.99
2017-06-04T09:08:18.011Z,0.28
2017-06-04T09:09:06.052Z,0.25
2017-06-04T09:10:00.065Z,0.23
2017-06-04T09:10:54.170Z,0.23
2017-06-04T09:11:48.225Z,0.24
2017-06-04T09:12:42.288Z,0.25
2017-06-04T09:13:36.311Z,0.27
2017-06-04T09:14:25.382Z,0.27
2017-06-04T09:15:20.415Z,0.27
2017-06-04T09:16:20.536Z,0.80
2017-06-04T09:17:15.575Z,0.96
2017-06-04T09:18:04.592Z,0.94
2017-06-04T09:19:04.679Z,0.94
2017-06-04T09:19:53.731Z,0.95
2017-06-04T09:20:47.728Z,0.95
2017-06-04T09:21:41.849Z,0.97
2017-06-04T09:22:30.064Z,0.98
2017-06-04T09:23:24.932Z,0.97
2017-06-04T09:24:20.030Z,0.97
2017-06-04T09:25:15.072Z,0.98
2017-06-04T09:26:15.175Z,0.34
2017-06-04T09:27:04.148Z,0.27
2017-06-04T09:27:58.261Z,0.25
2017-06-04T09:28:47.317Z,0.26
2017-06-04T09:29:42.354Z,0.72
2017-06-04T09:30:36.418Z,0.92
2017-06-04T09:31:24.486Z,0.33
2017-06-04T09:32:19.540Z,0.30
2017-06-04T09:33:13.591Z,0.95
2017-06-04T09:34:02.689Z,0.57
2017-06-04T09:34:56.684Z,0.98
2017-06-04T09:35:51.763Z,0.98
2017-06-04T09:36:40.854Z,1.00
2017-06-04T09:37:35.912Z,1.02
2017-06-04T09:38:25.181Z,1.00
2017-06-04T09:39:19.029Z,0.99
2017-06-04T09:40:19.099Z,0.33
2017-06-04T09:41:07.145Z,0.99
2017-06-04T09:42:07.171Z,1.01
2017-06-04T09:43:01.284Z,0.82
2017-06-04T09:43:55.360Z,0.96
2017-06-04T09:44:49.354Z,0.27
2017-06-04T09:45:43.445Z,0.23
2017-06-04T09:46:37.524Z,0.23
2017-06-04T09:47:37.598Z,0.25
2017-06-04T09:48:31.661Z,0.27
2017-06-04T09:49:19.649Z,0.29
2017-06-04T09:50:14.746Z,0.31
2017-06-04T09:51:08.829Z,0.33
2017-06-04T09:52:03.867Z,0.32
2017-06-04T09:52:57.897Z,0.31
2017-06-04T09:53:51.976Z,0.30
2017-06-04T09:54:46.112Z,0.31
2017-06-04T09:55:46.094Z,0.36
2017-06-04T09:56:35.190Z,0.95
2017-06-04T09:57:24.193Z,1.01
2017-06-04T09:58:12.276Z,1.07
2017-06-04T09:59:01.352Z,1.02
2017-06-04T09:59:55.363Z,1.00
2017-06-04T10:00:49.408Z,1.00
2017-06-04T10:01:49.414Z,1.03
2017-06-04T10:02:43.571Z,1.03
2017-06-04T10:03:37.642Z,1.04
2017-06-04T10:04:31.672Z,1.06
2017-06-04T10:05:26.742Z,1.04
2017-06-04T10:06:21.784Z,0.36
2017-06-04T10:07:21.794Z,0.35
2017-06-04T10:08:15.903Z,0.97
2017-06-04T10:09:04.985Z,1.03
2017-06-04T10:09:59.081Z,1.06
2017-06-04T10:10:53.176Z,0.92
2017-06-04T10:11:47.183Z,1.06
2017-06-04T10:12:36.192Z,1.07
2017-06-04T10:13:24.299Z,1.04
2017-06-04T10:14:12.327Z,0.33
2017-06-04T10:15:00.406Z,0.32
2017-06-04T10:15:54.463Z,0.38
2017-06-04T10:16:49.495Z,0.50
2017-06-04T10:17:44.613Z,0.29
2017-06-04T10:18:38.632Z,0.32
2017-06-04T10:19:26.682Z,0.24
2017-06-04T10:20:21.704Z,0.23
2017-06-04T10:21:15.805Z,0.54
2017-06-04T10:22:15.834Z,0.34
2017-06-04T10:23:10.874Z,0.92
2017-06-04T10:24:05.966Z,0.89
2017-06-04T10:24:55.075Z,0.89
2017-06-04T10:25:44.076Z,0.89
2017-06-04T10:26:38.165Z,0.89
2017-06-04T10:27:27.162Z,0.91
2017-06-04T10:28:21.246Z,0.92
2017-06-04T10:29:09.360Z,0.94
2017-06-04T10:30:03.382Z,0.96
2017-06-04T10:30:57.418Z,0.99
2017-06-04T10:31:57.561Z,1.00
2017-06-04T10:32:45.658Z,0.99
2017-06-04T10:33:40.681Z,0.97
2017-06-04T10:34:34.746Z,0.97
2017-06-04T10:35:28.813Z,0.32
2017-06-04T10:36:23.918Z,0.93
2017-06-04T10:37:18.938Z,0.96
2017-06-04T10:38:12.984Z,0.97
2017-06-04T10:39:01.059Z,0.96
2017-06-04T10:39:56.076Z,0.95
2017-06-04T10:40:56.179Z,0.91
2017-06-04T10:41:51.226Z,0.72
2017-06-04T10:42:39.372Z,0.97
2017-06-04T10:43:28.373Z,0.98
2017-06-04T10:44:16.401Z,1.00
2017-06-04T10:45:05.479Z,1.03
2017-06-04T10:46:00.577Z,1.02
2017-06-04T10:46:48.626Z,0.35
2017-06-04T10:47:42.720Z,0.23
2017-06-04T10:48:31.766Z,1.00
2017-06-04T10:49:20.810Z,1.03
2017-06-04T10:50:20.844Z,1.06
2017-06-04T10:51:15.959Z,1.06
2017-06-04T10:52:09.971Z,0.96
2017-06-04T10:53:04.108Z,1.07
2017-06-04T10:53:59.110Z,0.34
2017-06-04T10:54:48.168Z,0.36
2017-06-04T10:55:43.269Z,0.46
2017-06-04T10:56:32.289Z,1.14
2017-06-04T10:57:26.344Z,1.12
2017-06-04T10:58:20.515Z,1.15
2017-06-04T10:59:14.430Z,0.49
2017-06-04T11:00:03.542Z,1.10
2017-06-04T11:00:57.578Z,1.11
2017-06-04T11:01:51.639Z,0.31
2017-06-04T11:02:46.781Z,0.29
2017-06-04T11:03:40.788Z,0.31
2017-06-04T11:04:35.852Z,0.32
2017-06-04T11:05:29.844Z,0.99
2017-06-04T11:06:19.000Z,1.05
2017-06-04T11:07:08.031Z,1.03
2017-06-04T11:07:57.079Z,1.05
2017-06-04T11:08:45.120Z,0.40
2017-06-04T11:09:46.237Z,0.41
2017-06-04T11:10:34.247Z,0.50
2017-06-04T11:11:23.340Z,0.54
2017-06-04T11:12:18.360Z,0.66
2017-06-04T11:13:07.430Z,1.08
2017-06-04T11:14:01.561Z,0.42
2017-06-04T11:14:50.576Z,1.02
2017-06-04T11:15:44.660Z,0.36
2017-06-04T11:16:38.688Z,0.31
2017-06-04T11:17:32.739Z,0.29
2017-06-04T11:18:20.825Z,0.31
2017-06-04T11:19:14.881Z,0.32
2017-06-04T11:20:02.961Z,0.32
2017-06-04T11:20:51.049Z,0.33
2017-06-04T11:21:40.073Z,0.34
2017-06-04T11:22:34.193Z,0.42
2017-06-04T11:23:29.248Z,0.35
2017-06-04T11:24:24.250Z,0.32
2017-06-04T11:25:19.342Z,0.31
2017-06-04T11:26:13.328Z,0.32
2017-06-04T11:27:02.453Z,0.31
2017-06-04T11:27:50.763Z,0.31
2017-06-04T11:28:39.537Z,0.29
2017-06-04T11:29:33.701Z,0.28
2017-06-04T11:30:22.693Z,0.26
2017-06-04T11:31:22.733Z,0.24
2017-06-04T11:32:16.793Z,0.23
2017-06-04T11:33:04.894Z,0.23
2017-06-04T11:33:58.874Z,0.22
2017-06-04T11:34:52.976Z,0.21
2017-06-04T11:35:48.024Z,0.20
2017-06-04T11:36:42.034Z,0.19
2017-06-04T11:37:42.138Z,0.17
2017-06-04T11:38:31.205Z,0.17
2017-06-04T11:39:31.281Z,0.16
2017-06-04T11:40:25.349Z,0.14
2017-06-04T11:41:20.336Z,0.13
2017-06-04T11:42:14.373Z,0.12
2017-06-04T11:43:14.461Z,0.12
2017-06-04T11:44:08.474Z,0.11
2017-06-04T11:45:08.498Z,0.11
2017-06-04T11:46:02.748Z,0.11
2017-06-04T11:46:50.665Z,0.11
2017-06-04T11:47:50.906Z,0.10
2017-06-04T11:48:44.778Z,0.09
2017-06-04T11:49:44.763Z,0.08
2017-06-04T11:50:38.845Z,0.08
2017-06-04T11:51:38.835Z,0.07
2017-06-04T11:52:33.960Z,0.06
2017-06-04T11:53:22.991Z,0.05